Aérodrome :
LOGIN :

S'inscrire | Disclaimer

   EN    FR    IT 

 










Légende :    VFR   VFR Marginal   IFR   IFR Intensif   IFR Très Intensif
Visi : 
Plafond : 
>= 8 km
>= 3000ft
5 à 8 km
1000 à 3000 ft
1500m à 5 km
500 à 1000 ft
800 à 1500m
200 à 500 ft
< 800m
< 200 ft
Symboles :   Orages  Brouillard  Fortes neiges  Fortes précipitations  Vent > 20 kt
SIGMETs :   Divers  Orages  Givrage  Turbulence  Onde Orograph.  Cendres Volcan.






- Altitude de l'aérodrome : 124 ft
- Code IATA : NHT


EGWU - RAF Northolt

DERNIER METAR :
  • 211020Z 19003KT 8000 HZ FEW020 03/02 Q1042 NOSIG RMK BLU BLU

METARs EXPIRÉS :
  • 210950Z 26001KT 8000 BR FEW020 01/01 Q1042 NOSIG RMK BLU BLU
  • 210920Z 34003KT 8000 BR SKC M02/M02 Q1042 NOSIG RMK BLU BLU
  • 210850Z 32003KT 6000 BR SCT018 M03/M04 Q1042 BECMG 8000 HZ FEW018 RMK WHT BECMG BLU
  • 210820Z 15001KT 5000 BR SCT017 M02/M02 Q1042 BECMG 8000 HZ FEW017
  • 210750Z 34001KT 4000 MIFG BR FEW250 M04/M04 Q1042 TEMPO SCT016 RMK GRN TEMPO GRN

TAF TAF EGWU
Valide du 21 à 09h jusqu'au 22 à 03h UTC


210735Z 2109/2203 VRB03KT 4000 BR NSC
BECMG 2109/2112 9000 HZ
PROB40
TEMPO 2109/2113 BKN018
PROB30
TEMPO 2112/2118 7000 BR
BECMG 2118/2121 5000 BR BKN014
PROB30
TEMPO 2122/2203 SCT004 BKN010



MET'MAP, la Météo Aéronautique d'un coup d'oeil ! - Copyright ORBIFLY Décembre 2007 - Disclaimer

ORBIFLY MET'MAP TEAM :

Programmation & Développement : Alexandra Zaïnal
Sur une idée originale de : Baudouin d'Aumeries
Assistance à la programmation : Marc-Olivier Méhu
Soutien technique & logistique : Manuel Goepfert

Contact : metmap@orbifly.com




SOURCES & CREDITS :

   NOAA